createdAt,value
2023-03-08T00:01:13.441Z,2.30
2023-03-08T00:03:42.359Z,2.30
2023-03-08T00:06:13.202Z,2.30
2023-03-08T00:08:42.278Z,2.20
2023-03-08T00:11:12.441Z,2.20
2023-03-08T00:13:41.186Z,2.10
2023-03-08T00:16:13.266Z,2.00
2023-03-08T00:18:41.964Z,2.00
2023-03-08T00:21:12.527Z,1.90
2023-03-08T00:23:40.840Z,1.90
2023-03-08T00:26:09.549Z,1.80
2023-03-08T00:28:37.858Z,1.80
2023-03-08T00:31:08.455Z,1.80
2023-03-08T00:33:38.508Z,1.80
2023-03-08T00:36:09.584Z,1.80
2023-03-08T00:38:39.210Z,1.80
2023-03-08T00:41:07.752Z,1.70
2023-03-08T00:43:36.476Z,1.60
2023-03-08T00:46:05.029Z,1.70
2023-03-08T00:48:33.278Z,1.70
2023-03-08T00:51:02.905Z,1.70
2023-03-08T00:53:31.667Z,1.60
2023-03-08T00:56:01.690Z,1.60
2023-03-08T00:58:32.736Z,1.60
2023-03-08T01:01:02.110Z,1.70
2023-03-08T01:03:30.898Z,1.60
2023-03-08T01:06:00.009Z,1.70
2023-03-08T01:08:29.678Z,1.80
2023-03-08T01:10:59.614Z,1.70
2023-03-08T01:13:29.517Z,1.70
2023-03-08T01:15:58.557Z,1.80
2023-03-08T01:18:27.281Z,1.80
2023-03-08T01:20:59.886Z,1.90
2023-03-08T01:23:29.800Z,1.90
2023-03-08T01:26:02.887Z,1.90
2023-03-08T01:28:31.351Z,1.90
2023-03-08T01:31:03.808Z,1.90
2023-03-08T01:33:32.145Z,1.90
2023-03-08T01:36:00.602Z,1.80
2023-03-08T01:38:30.221Z,1.70
2023-03-08T01:40:58.715Z,1.70
2023-03-08T01:43:28.933Z,1.70
2023-03-08T01:46:24.934Z,1.70
2023-03-08T01:49:04.391Z,1.60
2023-03-08T01:51:38.705Z,1.70
2023-03-08T01:54:12.303Z,1.60
2023-03-08T01:56:41.533Z,1.60
2023-03-08T01:59:11.842Z,1.60
2023-03-08T02:01:41.958Z,1.50
2023-03-08T02:04:11.969Z,1.50
2023-03-08T02:06:40.407Z,1.60
2023-03-08T02:09:10.571Z,1.50
2023-03-08T02:11:41.769Z,1.60
2023-03-08T02:14:10.269Z,1.60
2023-03-08T02:16:40.210Z,1.50
2023-03-08T02:19:15.790Z,1.50
2023-03-08T02:21:44.153Z,1.50
2023-03-08T02:24:22.434Z,1.50
2023-03-08T02:26:52.392Z,1.60
2023-03-08T02:29:20.654Z,1.50
2023-03-08T02:31:48.852Z,1.40
2023-03-08T02:34:17.165Z,1.50
2023-03-08T02:36:45.324Z,1.50
2023-03-08T02:39:13.599Z,1.60
2023-03-08T02:41:43.224Z,1.60
2023-03-08T02:44:11.544Z,1.60
2023-03-08T02:46:39.767Z,1.60
2023-03-08T02:49:08.114Z,1.60
2023-03-08T02:51:36.456Z,1.60
2023-03-08T02:54:05.196Z,1.70
2023-03-08T02:56:34.145Z,1.70
2023-03-08T02:59:04.138Z,1.60
2023-03-08T03:01:34.336Z,1.70
2023-03-08T03:04:02.578Z,1.70
2023-03-08T03:06:32.179Z,1.80
2023-03-08T03:09:01.037Z,1.70
2023-03-08T03:11:30.353Z,1.70
2023-03-08T03:14:01.174Z,1.70
2023-03-08T03:16:37.999Z,1.70
2023-03-08T03:19:06.264Z,1.80
2023-03-08T03:21:34.585Z,1.80
2023-03-08T03:24:04.124Z,1.70
2023-03-08T03:26:53.232Z,1.70
2023-03-08T03:29:23.710Z,1.80
2023-03-08T03:31:59.907Z,1.80
2023-03-08T03:34:28.154Z,1.90
2023-03-08T03:36:56.565Z,1.80
2023-03-08T03:39:25.552Z,2.00
2023-03-08T03:41:54.512Z,2.00
2023-03-08T03:44:22.879Z,2.00
2023-03-08T03:46:51.538Z,2.00
2023-03-08T03:49:26.711Z,2.00
2023-03-08T03:51:54.941Z,2.00
2023-03-08T03:54:32.957Z,1.90
2023-03-08T03:57:01.185Z,2.00
2023-03-08T03:59:35.065Z,2.00
2023-03-08T04:02:28.586Z,1.90
2023-03-08T04:05:01.619Z,2.00
2023-03-08T04:07:34.482Z,2.10
2023-03-08T04:10:04.179Z,2.10
2023-03-08T04:12:34.094Z,2.10
2023-03-08T04:15:02.440Z,2.10
2023-03-08T04:17:33.057Z,2.10
2023-03-08T04:20:08.504Z,2.10
2023-03-08T04:22:41.770Z,2.10
2023-03-08T04:25:19.375Z,2.10
2023-03-08T04:27:54.710Z,2.00
2023-03-08T04:30:23.491Z,2.00
2023-03-08T04:32:53.175Z,2.00
2023-03-08T04:35:25.352Z,1.80
2023-03-08T04:37:55.463Z,1.80
2023-03-08T04:40:26.525Z,1.80
2023-03-08T04:42:59.749Z,1.80
2023-03-08T04:45:34.190Z,1.70
2023-03-08T04:48:07.048Z,1.70
2023-03-08T04:50:39.355Z,1.80
2023-03-08T04:53:10.407Z,1.80
2023-03-08T04:55:38.901Z,1.90
2023-03-08T04:58:07.517Z,1.90
2023-03-08T05:00:35.906Z,1.90
2023-03-08T05:03:06.254Z,2.00
2023-03-08T05:05:34.668Z,1.90
2023-03-08T05:08:05.349Z,1.80
2023-03-08T05:10:36.088Z,1.80
2023-03-08T05:13:07.962Z,1.70
2023-03-08T05:15:36.645Z,1.70
2023-03-08T05:18:04.988Z,1.70
2023-03-08T05:20:34.100Z,1.80
2023-03-08T05:23:03.855Z,1.80
2023-03-08T05:25:44.728Z,1.80
2023-03-08T05:28:15.994Z,1.90
2023-03-08T05:30:46.092Z,1.90
2023-03-08T05:33:15.731Z,1.90
2023-03-08T05:35:44.280Z,1.90
2023-03-08T05:38:15.604Z,1.90
2023-03-08T05:40:44.046Z,1.90
2023-03-08T05:43:14.881Z,2.00
2023-03-08T05:45:54.934Z,2.00
2023-03-08T05:48:23.639Z,2.00
2023-03-08T05:50:51.815Z,1.90
2023-03-08T05:53:22.429Z,1.90
2023-03-08T05:55:50.816Z,1.90
2023-03-08T05:58:19.343Z,2.00
2023-03-08T06:00:48.328Z,2.00
2023-03-08T06:03:17.054Z,2.00
2023-03-08T06:05:46.809Z,2.00
2023-03-08T06:08:15.067Z,2.00
2023-03-08T06:10:44.684Z,1.90
2023-03-08T06:13:12.940Z,1.80
2023-03-08T06:15:41.289Z,1.70
2023-03-08T06:18:09.962Z,1.70
2023-03-08T06:20:38.488Z,1.60
2023-03-08T06:23:07.456Z,1.70
2023-03-08T06:25:35.745Z,1.70
2023-03-08T06:28:05.836Z,1.80
2023-03-08T06:30:39.035Z,1.80
2023-03-08T06:33:07.718Z,1.90
2023-03-08T06:35:36.028Z,1.90
2023-03-08T06:38:06.151Z,1.90
2023-03-08T06:40:36.280Z,2.00
2023-03-08T06:43:06.144Z,1.90
2023-03-08T06:45:34.949Z,1.90
2023-03-08T06:48:03.224Z,2.00
2023-03-08T06:50:31.449Z,2.10
2023-03-08T06:53:00.111Z,2.00
2023-03-08T06:55:45.885Z,2.10
2023-03-08T06:58:15.740Z,2.00
2023-03-08T07:00:43.968Z,2.10
2023-03-08T07:03:13.647Z,2.10
2023-03-08T07:05:42.454Z,2.10
2023-03-08T07:08:10.743Z,2.10
2023-03-08T07:10:38.952Z,2.10
2023-03-08T07:13:07.259Z,2.10
2023-03-08T07:15:41.479Z,2.10
2023-03-08T07:18:09.825Z,2.00
2023-03-08T07:20:38.018Z,2.00
2023-03-08T07:26:49.041Z,1.90
2023-03-08T07:29:17.728Z,2.00
2023-03-08T07:31:47.406Z,1.90
2023-03-08T07:34:15.796Z,1.80
2023-03-08T07:36:44.027Z,1.90
2023-03-08T07:39:12.210Z,1.90
2023-03-08T07:41:40.470Z,1.80
2023-03-08T07:44:08.818Z,1.80
2023-03-08T07:46:37.166Z,1.80
2023-03-08T07:49:10.544Z,1.70
2023-03-08T07:51:39.324Z,1.80
2023-03-08T07:54:07.715Z,1.70
2023-03-08T07:56:35.960Z,1.70
2023-03-08T07:59:04.150Z,1.80
2023-03-08T08:01:33.456Z,1.80
2023-03-08T08:04:01.910Z,1.70
2023-03-08T08:06:31.772Z,1.70
2023-03-08T08:09:00.121Z,1.70
2023-03-08T08:11:28.540Z,1.60
2023-03-08T08:13:56.830Z,1.60
2023-03-08T08:16:25.867Z,1.70
2023-03-08T08:18:55.546Z,1.60
2023-03-08T08:21:25.372Z,1.50
2023-03-08T08:23:57.944Z,1.60
2023-03-08T08:26:26.420Z,1.50
2023-03-08T08:28:56.106Z,1.50
2023-03-08T08:31:26.905Z,1.60
2023-03-08T08:33:55.325Z,1.70
2023-03-08T08:36:24.830Z,1.50
2023-03-08T08:38:53.552Z,1.50
2023-03-08T08:41:24.744Z,1.60
2023-03-08T08:43:53.146Z,1.40
2023-03-08T08:46:21.531Z,1.50
2023-03-08T08:48:49.774Z,1.50
2023-03-08T08:51:18.051Z,1.60
2023-03-08T08:53:46.290Z,1.50
2023-03-08T08:56:26.140Z,1.50
2023-03-08T08:58:57.951Z,1.60
2023-03-08T09:01:28.327Z,1.70
2023-03-08T09:03:57.117Z,1.70
2023-03-08T09:06:27.860Z,1.70
2023-03-08T09:08:58.419Z,1.40
2023-03-08T09:11:28.018Z,1.40
2023-03-08T09:13:58.044Z,1.50
2023-03-08T09:16:28.257Z,1.40
2023-03-08T09:18:57.598Z,1.40
2023-03-08T09:21:26.576Z,1.30
2023-03-08T09:23:55.378Z,1.30
2023-03-08T09:26:23.704Z,1.20
2023-03-08T09:28:51.980Z,1.30
2023-03-08T09:31:21.681Z,1.30
2023-03-08T09:33:52.165Z,1.30
2023-03-08T09:36:21.129Z,1.30
2023-03-08T09:38:50.535Z,1.30
2023-03-08T09:41:35.597Z,1.30
2023-03-08T09:44:17.531Z,1.30
2023-03-08T09:46:50.553Z,1.30
2023-03-08T09:49:29.095Z,1.40
2023-03-08T09:52:06.117Z,1.40
2023-03-08T09:54:38.370Z,1.40
2023-03-08T09:57:11.520Z,1.40
2023-03-08T09:59:45.806Z,1.30
2023-03-08T10:02:28.737Z,1.40
2023-03-08T10:05:13.377Z,1.30
2023-03-08T10:07:58.415Z,1.30
2023-03-08T10:10:42.918Z,1.40
2023-03-08T10:13:30.674Z,1.30
2023-03-08T10:16:07.287Z,1.30
2023-03-08T10:18:43.897Z,1.30
2023-03-08T10:21:17.176Z,1.30
2023-03-08T10:23:47.919Z,1.40
2023-03-08T10:26:18.611Z,1.40
2023-03-08T10:28:47.017Z,1.30
2023-03-08T10:31:22.551Z,1.40
2023-03-08T10:33:58.275Z,1.40
2023-03-08T10:36:27.497Z,1.50
2023-03-08T10:39:07.092Z,1.40
2023-03-08T10:41:42.287Z,1.50
2023-03-08T10:44:16.311Z,1.50
2023-03-08T10:46:49.820Z,1.60
2023-03-08T10:49:20.800Z,1.30
2023-03-08T10:51:59.284Z,1.30
2023-03-08T10:54:28.542Z,1.40
2023-03-08T10:56:59.633Z,1.40
2023-03-08T10:59:32.705Z,1.40
2023-03-08T11:02:03.295Z,1.50
2023-03-08T11:04:33.090Z,1.50
2023-03-08T11:07:20.164Z,1.50
2023-03-08T11:09:48.387Z,1.40
2023-03-08T11:12:24.844Z,1.50
2023-03-08T11:14:53.891Z,1.50
2023-03-08T11:17:28.441Z,1.60
2023-03-08T11:20:11.450Z,1.70
2023-03-08T11:22:54.660Z,1.70
2023-03-08T11:25:42.602Z,1.70
2023-03-08T11:28:49.366Z,1.90
2023-03-08T11:31:28.639Z,2.00
2023-03-08T11:34:39.293Z,1.90
2023-03-08T11:37:15.736Z,2.10
2023-03-08T11:39:50.072Z,1.90
2023-03-08T11:42:26.920Z,1.80
2023-03-08T11:45:13.497Z,1.80
2023-03-08T11:48:15.145Z,1.90
2023-03-08T11:50:48.670Z,2.00
2023-03-08T11:53:23.709Z,2.00
2023-03-08T11:56:21.601Z,2.00
2023-03-08T11:58:53.409Z,2.00
2023-03-08T12:01:24.689Z,1.80
2023-03-08T12:03:57.079Z,2.00
2023-03-08T12:06:31.524Z,1.80
2023-03-08T12:09:08.084Z,1.80
2023-03-08T12:11:42.221Z,1.80
2023-03-08T12:14:17.714Z,1.80
2023-03-08T12:16:51.023Z,1.70
2023-03-08T12:19:29.755Z,1.80
2023-03-08T12:22:15.307Z,1.90
2023-03-08T12:24:50.883Z,1.80
2023-03-08T12:27:25.554Z,2.00
2023-03-08T12:29:57.851Z,1.90
2023-03-08T12:32:27.470Z,1.90
2023-03-08T12:35:05.628Z,1.90
2023-03-08T12:37:34.149Z,1.90
2023-03-08T12:40:07.934Z,1.90
2023-03-08T12:42:38.755Z,1.90
2023-03-08T12:45:11.110Z,1.80
2023-03-08T12:47:40.125Z,1.80
2023-03-08T12:50:11.801Z,1.90
2023-03-08T12:52:40.148Z,1.90
2023-03-08T12:55:21.788Z,1.90
2023-03-08T12:57:51.748Z,1.90
2023-03-08T13:00:29.403Z,2.00
2023-03-08T13:03:02.527Z,2.00
2023-03-08T13:05:33.358Z,2.10
2023-03-08T13:08:24.466Z,2.00
2023-03-08T13:11:03.729Z,2.20
2023-03-08T13:13:41.546Z,2.20
2023-03-08T13:16:22.771Z,2.30
2023-03-08T13:19:01.778Z,2.20
2023-03-08T13:21:35.373Z,2.20
2023-03-08T13:24:12.213Z,2.20
2023-03-08T13:26:51.742Z,2.30
2023-03-08T13:29:21.900Z,2.10
2023-03-08T13:31:51.251Z,2.20
2023-03-08T13:34:28.964Z,2.20
2023-03-08T13:36:57.277Z,2.20
2023-03-08T13:39:27.234Z,2.20
2023-03-08T13:42:07.275Z,2.30
2023-03-08T13:44:35.526Z,2.40
2023-03-08T13:47:06.123Z,2.30
2023-03-08T13:49:36.920Z,2.30
2023-03-08T13:52:14.601Z,2.30
2023-03-08T13:54:47.240Z,2.40
2023-03-08T13:57:23.963Z,2.30
2023-03-08T13:59:53.802Z,2.40
2023-03-08T14:02:24.400Z,2.20
2023-03-08T14:04:52.826Z,2.30
2023-03-08T14:07:24.529Z,2.40
2023-03-08T14:09:53.143Z,2.30
2023-03-08T14:12:26.633Z,2.50
2023-03-08T14:14:57.994Z,2.30
2023-03-08T14:17:29.402Z,2.30
2023-03-08T14:19:59.526Z,2.30
2023-03-08T14:22:39.385Z,2.40
2023-03-08T14:25:23.603Z,2.40
2023-03-08T14:27:53.880Z,2.40
2023-03-08T14:30:24.093Z,2.40
2023-03-08T14:33:02.969Z,2.50
2023-03-08T14:35:33.395Z,2.50
2023-03-08T14:38:02.306Z,2.40
2023-03-08T14:40:33.443Z,2.50
2023-03-08T14:43:05.012Z,2.70
2023-03-08T14:45:38.943Z,2.70
2023-03-08T14:48:24.606Z,2.50
2023-03-08T14:50:58.205Z,2.50
2023-03-08T14:53:32.507Z,2.50
2023-03-08T14:56:02.520Z,2.50
2023-03-08T14:58:33.461Z,2.50
2023-03-08T15:01:04.153Z,2.50
2023-03-08T15:03:33.624Z,2.40
2023-03-08T15:06:09.076Z,2.50
2023-03-08T15:08:37.591Z,2.40
2023-03-08T15:11:07.657Z,2.40
2023-03-08T15:13:37.241Z,2.30
2023-03-08T15:16:07.522Z,2.30
2023-03-08T15:18:35.759Z,2.40
2023-03-08T15:21:04.123Z,2.40
2023-03-08T15:23:34.386Z,2.50
2023-03-08T15:26:04.051Z,2.50
2023-03-08T15:28:32.310Z,2.50
2023-03-08T15:31:02.198Z,2.40
2023-03-08T15:33:30.393Z,2.60
2023-03-08T15:35:59.929Z,2.50
2023-03-08T15:38:28.211Z,2.60
2023-03-08T15:40:56.534Z,2.50
2023-03-08T15:43:24.846Z,2.40
2023-03-08T15:45:53.036Z,2.50
2023-03-08T15:48:23.417Z,2.40
2023-03-08T15:50:51.650Z,2.50
2023-03-08T15:53:33.237Z,2.50
2023-03-08T15:56:03.044Z,2.50
2023-03-08T15:58:31.271Z,2.50
2023-03-08T16:00:59.568Z,2.60
2023-03-08T16:03:31.353Z,2.60
2023-03-08T16:06:00.284Z,2.50
2023-03-08T16:08:29.574Z,2.50
2023-03-08T16:11:03.679Z,2.40
2023-03-08T16:13:32.096Z,2.50
2023-03-08T16:16:00.934Z,2.50
2023-03-08T16:18:32.253Z,2.50
2023-03-08T16:21:01.400Z,2.50
2023-03-08T16:23:29.658Z,2.40
2023-03-08T16:26:13.971Z,2.40
2023-03-08T16:28:44.493Z,2.40
2023-03-08T16:31:13.363Z,2.40
2023-03-08T16:33:43.410Z,2.40
2023-03-08T16:36:12.754Z,2.30
2023-03-08T16:38:41.456Z,2.30
2023-03-08T16:41:13.235Z,2.40
2023-03-08T16:43:49.221Z,2.40
2023-03-08T16:46:19.444Z,2.30
2023-03-08T16:48:50.285Z,2.30
2023-03-08T16:51:20.199Z,2.30
2023-03-08T16:53:48.847Z,2.30
2023-03-08T16:56:21.519Z,2.30
2023-03-08T16:58:49.963Z,2.30
2023-03-08T17:01:20.320Z,2.30
2023-03-08T17:03:50.550Z,2.20
2023-03-08T17:06:20.750Z,2.20
2023-03-08T17:08:49.778Z,2.20
2023-03-08T17:11:19.258Z,2.20
2023-03-08T17:13:50.971Z,2.30
2023-03-08T17:16:20.180Z,2.30
2023-03-08T17:18:50.852Z,2.20
2023-03-08T17:21:20.023Z,2.20
2023-03-08T17:23:48.715Z,2.20
2023-03-08T17:26:18.108Z,2.20
2023-03-08T17:28:46.517Z,2.20
2023-03-08T17:31:16.853Z,2.20
2023-03-08T17:33:45.881Z,2.20
2023-03-08T17:36:16.472Z,2.20
2023-03-08T17:38:45.011Z,2.20
2023-03-08T17:41:14.984Z,2.10
2023-03-08T17:43:43.618Z,2.10
2023-03-08T17:46:14.207Z,2.10
2023-03-08T17:48:43.053Z,2.10
2023-03-08T17:51:12.993Z,2.10
2023-03-08T17:53:43.323Z,2.00
2023-03-08T17:56:14.297Z,2.00
2023-03-08T17:58:42.726Z,2.00
2023-03-08T18:01:12.584Z,2.00
2023-03-08T18:03:40.906Z,2.00
2023-03-08T18:06:16.243Z,2.00
2023-03-08T18:08:45.963Z,2.00
2023-03-08T18:11:14.278Z,2.00
2023-03-08T18:13:42.589Z,2.00
2023-03-08T18:16:10.951Z,2.00
2023-03-08T18:18:39.185Z,2.00
2023-03-08T18:21:13.881Z,2.00
2023-03-08T18:23:43.318Z,2.10
2023-03-08T18:26:13.944Z,2.00
2023-03-08T18:28:42.362Z,1.90
2023-03-08T18:31:12.471Z,1.90
2023-03-08T18:33:42.466Z,1.90
2023-03-08T18:36:11.154Z,1.90
2023-03-08T18:38:39.382Z,1.90
2023-03-08T18:41:16.966Z,1.80
2023-03-08T18:43:45.304Z,1.80
2023-03-08T18:46:14.824Z,1.80
2023-03-08T18:48:44.074Z,1.80
2023-03-08T18:51:12.325Z,1.90
2023-03-08T18:53:40.560Z,1.80
2023-03-08T18:56:09.224Z,1.90
2023-03-08T18:58:38.817Z,1.80
2023-03-08T19:01:12.203Z,1.80
2023-03-08T19:03:41.000Z,1.90
2023-03-08T19:06:09.436Z,1.80
2023-03-08T19:08:39.843Z,1.70
2023-03-08T19:11:13.218Z,1.70
2023-03-08T19:13:43.813Z,1.70
2023-03-08T19:16:20.261Z,1.70
2023-03-08T19:18:49.665Z,1.70
2023-03-08T19:21:19.353Z,1.60
2023-03-08T19:23:47.818Z,1.60
2023-03-08T19:26:37.055Z,1.60
2023-03-08T19:29:09.646Z,1.70
2023-03-08T19:31:41.526Z,1.60
2023-03-08T19:34:10.463Z,1.80
2023-03-08T19:36:39.144Z,1.80
2023-03-08T19:39:12.181Z,1.90
2023-03-08T19:41:40.572Z,1.80
2023-03-08T19:44:10.738Z,1.80
2023-03-08T19:46:40.420Z,1.80
2023-03-08T19:49:12.110Z,1.80
2023-03-08T19:51:40.368Z,1.80
2023-03-08T19:54:09.078Z,1.80
2023-03-08T19:56:37.411Z,1.70
2023-03-08T19:59:05.802Z,1.80
2023-03-08T20:01:36.141Z,1.80
2023-03-08T20:04:05.376Z,1.70
2023-03-08T20:06:36.338Z,1.80
2023-03-08T20:09:07.344Z,1.80
2023-03-08T20:11:35.701Z,1.80
2023-03-08T20:14:04.585Z,1.80
2023-03-08T20:16:33.143Z,1.80
2023-03-08T20:19:02.923Z,1.70
2023-03-08T20:21:32.203Z,1.70
2023-03-08T20:24:00.813Z,1.90
2023-03-08T20:26:31.512Z,1.90
2023-03-08T20:29:00.827Z,1.80
2023-03-08T20:31:32.353Z,1.90
2023-03-08T20:34:02.148Z,1.90
2023-03-08T20:36:30.613Z,2.00
2023-03-08T20:38:59.311Z,2.00
2023-03-08T20:41:28.308Z,2.00
2023-03-08T20:43:56.587Z,2.10
2023-03-08T20:46:29.545Z,2.00
2023-03-08T20:48:58.323Z,1.90
2023-03-08T20:51:28.320Z,1.90
2023-03-08T20:53:57.305Z,1.90
2023-03-08T20:56:26.664Z,1.90
2023-03-08T20:58:57.302Z,1.90
2023-03-08T21:01:28.959Z,2.00
2023-03-08T21:03:57.478Z,1.80
2023-03-08T21:06:30.131Z,1.80
2023-03-08T21:09:00.601Z,1.80
2023-03-08T21:11:29.405Z,1.80
2023-03-08T21:13:58.127Z,1.70
2023-03-08T21:16:28.091Z,1.70
2023-03-08T21:18:57.971Z,1.70
2023-03-08T21:21:30.726Z,1.50
2023-03-08T21:24:00.369Z,1.60
2023-03-08T21:26:30.190Z,1.50
2023-03-08T21:29:01.610Z,1.50
2023-03-08T21:31:30.370Z,1.50
2023-03-08T21:34:23.076Z,1.60
2023-03-08T21:37:18.389Z,1.40
2023-03-08T21:39:46.757Z,1.50
2023-03-08T21:42:16.304Z,1.40
2023-03-08T21:44:44.567Z,1.40
2023-03-08T21:47:12.854Z,1.40
2023-03-08T21:49:41.103Z,1.40
2023-03-08T21:52:09.331Z,1.40
2023-03-08T21:54:38.964Z,1.30
2023-03-08T21:57:07.151Z,1.40
2023-03-08T21:59:35.387Z,1.40
2023-03-08T22:02:03.742Z,1.40
2023-03-08T22:04:31.966Z,1.40
2023-03-08T22:07:00.174Z,1.50
2023-03-08T22:09:29.361Z,1.40
2023-03-08T22:11:59.415Z,1.50
2023-03-08T22:14:28.542Z,1.40
2023-03-08T22:16:57.166Z,1.40
2023-03-08T22:19:25.405Z,1.50
2023-03-08T22:21:53.824Z,1.40
2023-03-08T22:24:22.135Z,1.50
2023-03-08T22:26:50.461Z,1.50
2023-03-08T22:29:20.135Z,1.50
2023-03-08T22:31:48.469Z,1.60
2023-03-08T22:34:16.816Z,1.60
2023-03-08T22:36:44.978Z,1.60
2023-03-08T22:39:13.213Z,1.50
2023-03-08T22:41:41.472Z,1.50
2023-03-08T22:44:13.439Z,1.50
2023-03-08T22:46:43.188Z,1.50
2023-03-08T22:49:12.666Z,1.40
2023-03-08T22:51:42.401Z,1.50
2023-03-08T22:54:17.049Z,1.50
2023-03-08T22:56:45.927Z,1.50
2023-03-08T22:59:15.039Z,1.50
2023-03-08T23:01:44.751Z,1.50
2023-03-08T23:04:14.355Z,1.40
2023-03-08T23:06:42.629Z,1.50
2023-03-08T23:09:12.774Z,1.50
2023-03-08T23:11:41.805Z,1.60
2023-03-08T23:14:10.749Z,1.50
2023-03-08T23:16:42.429Z,1.60
2023-03-08T23:19:15.563Z,1.60
2023-03-08T23:21:44.698Z,1.70
2023-03-08T23:24:13.156Z,1.60
2023-03-08T23:26:43.152Z,1.50
2023-03-08T23:29:11.483Z,1.50
2023-03-08T23:31:43.522Z,1.60
2023-03-08T23:34:13.202Z,1.60
2023-03-08T23:36:41.462Z,1.60
2023-03-08T23:39:09.786Z,1.50
2023-03-08T23:41:38.193Z,1.50
2023-03-08T23:44:06.388Z,1.60
2023-03-08T23:46:34.711Z,1.50
2023-03-08T23:49:04.106Z,1.60
2023-03-08T23:51:34.336Z,1.60
2023-03-08T23:54:03.552Z,1.70
2023-03-08T23:56:37.996Z,1.70
2023-03-08T23:59:09.136Z,1.60
